sensor_id;sensor_type;location;lat;lon;timestamp;temperature;humidity
11385;DHT22;5747;56.748;13.882;2022-08-04T00:00:19;15.00;99.90
11385;DHT22;5747;56.748;13.882;2022-08-04T00:02:55;15.00;99.90
11385;DHT22;5747;56.748;13.882;2022-08-04T00:05:35;15.00;99.90
11385;DHT22;5747;56.748;13.882;2022-08-04T00:08:18;15.00;99.90
11385;DHT22;5747;56.748;13.882;2022-08-04T00:10:53;14.90;99.90
11385;DHT22;5747;56.748;13.882;2022-08-04T00:13:22;14.90;99.90
11385;DHT22;5747;56.748;13.882;2022-08-04T00:15:52;14.80;99.90
11385;DHT22;5747;56.748;13.882;2022-08-04T00:18:24;14.80;99.90
11385;DHT22;5747;56.748;13.882;2022-08-04T00:20:56;14.80;99.90
11385;DHT22;5747;56.748;13.882;2022-08-04T00:23:26;14.70;99.90
11385;DHT22;5747;56.748;13.882;2022-08-04T00:26:16;14.70;99.90
11385;DHT22;5747;56.748;13.882;2022-08-04T00:28:45;14.70;99.90
11385;DHT22;5747;56.748;13.882;2022-08-04T00:31:15;14.60;99.90
11385;DHT22;5747;56.748;13.882;2022-08-04T00:33:45;14.60;99.90
11385;DHT22;5747;56.748;13.882;2022-08-04T00:36:13;14.50;99.90
11385;DHT22;5747;56.748;13.882;2022-08-04T00:38:42;14.50;99.90
11385;DHT22;5747;56.748;13.882;2022-08-04T00:41:20;14.40;99.90
11385;DHT22;5747;56.748;13.882;2022-08-04T00:44:05;14.20;99.90
11385;DHT22;5747;56.748;13.882;2022-08-04T00:47:03;14.30;99.90
11385;DHT22;5747;56.748;13.882;2022-08-04T00:50:03;14.20;99.90
11385;DHT22;5747;56.748;13.882;2022-08-04T00:52:55;14.20;99.90
11385;DHT22;5747;56.748;13.882;2022-08-04T00:58:41;14.20;99.90
11385;DHT22;5747;56.748;13.882;2022-08-04T01:01:21;14.10;99.90
11385;DHT22;5747;56.748;13.882;2022-08-04T01:04:02;14.10;99.90
11385;DHT22;5747;56.748;13.882;2022-08-04T01:06:36;14.10;99.90
11385;DHT22;5747;56.748;13.882;2022-08-04T01:09:23;14.10;99.90
11385;DHT22;5747;56.748;13.882;2022-08-04T01:12:13;14.00;99.90
11385;DHT22;5747;56.748;13.882;2022-08-04T01:14:58;13.90;99.90
11385;DHT22;5747;56.748;13.882;2022-08-04T01:17:42;13.90;99.90
11385;DHT22;5747;56.748;13.882;2022-08-04T01:20:16;13.80;99.90
11385;DHT22;5747;56.748;13.882;2022-08-04T01:26:17;13.70;99.90
11385;DHT22;5747;56.748;13.882;2022-08-04T01:29:09;13.70;99.90
11385;DHT22;5747;56.748;13.882;2022-08-04T01:31:59;13.60;99.90
11385;DHT22;5747;56.748;13.882;2022-08-04T01:34:30;13.70;99.90
11385;DHT22;5747;56.748;13.882;2022-08-04T01:37:09;13.60;99.90
11385;DHT22;5747;56.748;13.882;2022-08-04T01:39:44;13.60;99.90
11385;DHT22;5747;56.748;13.882;2022-08-04T01:42:18;13.60;99.90
11385;DHT22;5747;56.748;13.882;2022-08-04T01:45:00;13.60;99.90
11385;DHT22;5747;56.748;13.882;2022-08-04T01:47:29;13.50;99.90
11385;DHT22;5747;56.748;13.882;2022-08-04T01:50:04;13.50;99.90
11385;DHT22;5747;56.748;13.882;2022-08-04T01:52:34;13.40;99.90
11385;DHT22;5747;56.748;13.882;2022-08-04T01:55:04;13.40;99.90
11385;DHT22;5747;56.748;13.882;2022-08-04T01:57:36;13.40;99.90
11385;DHT22;5747;56.748;13.882;2022-08-04T02:00:10;13.30;99.90
11385;DHT22;5747;56.748;13.882;2022-08-04T02:02:39;13.30;99.90
11385;DHT22;5747;56.748;13.882;2022-08-04T02:05:09;13.20;99.90
11385;DHT22;5747;56.748;13.882;2022-08-04T02:07:46;13.20;99.90
11385;DHT22;5747;56.748;13.882;2022-08-04T02:10:22;13.10;99.90
11385;DHT22;5747;56.748;13.882;2022-08-04T02:13:00;13.10;99.90
11385;DHT22;5747;56.748;13.882;2022-08-04T02:15:38;13.10;99.90
11385;DHT22;5747;56.748;13.882;2022-08-04T02:18:16;13.00;99.90
11385;DHT22;5747;56.748;13.882;2022-08-04T02:20:48;12.90;99.90
11385;DHT22;5747;56.748;13.882;2022-08-04T02:23:25;12.80;99.90
11385;DHT22;5747;56.748;13.882;2022-08-04T02:25:57;12.80;99.90
11385;DHT22;5747;56.748;13.882;2022-08-04T02:28:32;12.80;99.90
11385;DHT22;5747;56.748;13.882;2022-08-04T02:31:13;12.80;99.90
11385;DHT22;5747;56.748;13.882;2022-08-04T02:33:45;12.80;99.90
11385;DHT22;5747;56.748;13.882;2022-08-04T02:36:26;12.80;99.90
11385;DHT22;5747;56.748;13.882;2022-08-04T02:38:58;12.80;99.90
11385;DHT22;5747;56.748;13.882;2022-08-04T02:41:28;12.70;99.90
11385;DHT22;5747;56.748;13.882;2022-08-04T02:43:58;12.50;99.90
11385;DHT22;5747;56.748;13.882;2022-08-04T02:46:28;12.50;99.90
11385;DHT22;5747;56.748;13.882;2022-08-04T02:48:57;12.50;99.90
11385;DHT22;5747;56.748;13.882;2022-08-04T02:51:31;12.50;99.90
11385;DHT22;5747;56.748;13.882;2022-08-04T02:54:02;12.50;99.90
11385;DHT22;5747;56.748;13.882;2022-08-04T02:56:34;12.60;99.90
11385;DHT22;5747;56.748;13.882;2022-08-04T02:59:06;12.50;99.90
11385;DHT22;5747;56.748;13.882;2022-08-04T03:01:37;12.50;99.90
11385;DHT22;5747;56.748;13.882;2022-08-04T03:04:43;12.50;99.90
11385;DHT22;5747;56.748;13.882;2022-08-04T03:07:34;12.50;99.90
11385;DHT22;5747;56.748;13.882;2022-08-04T03:16:29;12.60;99.90
11385;DHT22;5747;56.748;13.882;2022-08-04T03:19:24;12.50;99.90
11385;DHT22;5747;56.748;13.882;2022-08-04T03:22:28;12.70;99.90
11385;DHT22;5747;56.748;13.882;2022-08-04T03:25:33;12.90;99.90
11385;DHT22;5747;56.748;13.882;2022-08-04T03:31:54;12.80;99.90
11385;DHT22;5747;56.748;13.882;2022-08-04T03:34:44;12.70;99.90
11385;DHT22;5747;56.748;13.882;2022-08-04T03:37:38;12.70;99.90
11385;DHT22;5747;56.748;13.882;2022-08-04T03:40:28;12.80;99.90
11385;DHT22;5747;56.748;13.882;2022-08-04T03:43:33;12.90;99.90
11385;DHT22;5747;56.748;13.882;2022-08-04T03:46:51;13.00;99.90
11385;DHT22;5747;56.748;13.882;2022-08-04T03:50:07;13.10;99.90
11385;DHT22;5747;56.748;13.882;2022-08-04T03:53:02;13.00;99.90
11385;DHT22;5747;56.748;13.882;2022-08-04T03:55:45;13.00;99.90
11385;DHT22;5747;56.748;13.882;2022-08-04T03:58:47;13.20;99.90
11385;DHT22;5747;56.748;13.882;2022-08-04T04:01:42;13.40;99.90
11385;DHT22;5747;56.748;13.882;2022-08-04T04:04:59;13.40;99.90
11385;DHT22;5747;56.748;13.882;2022-08-04T04:07:56;13.50;99.90
11385;DHT22;5747;56.748;13.882;2022-08-04T04:13:56;14.00;99.90
11385;DHT22;5747;56.748;13.882;2022-08-04T04:16:42;14.40;99.90
11385;DHT22;5747;56.748;13.882;2022-08-04T04:19:31;15.10;99.90
11385;DHT22;5747;56.748;13.882;2022-08-04T04:22:24;16.10;99.90
11385;DHT22;5747;56.748;13.882;2022-08-04T04:25:18;17.20;99.90
11385;DHT22;5747;56.748;13.882;2022-08-04T04:28:05;17.60;99.90
11385;DHT22;5747;56.748;13.882;2022-08-04T04:31:06;17.60;99.90
11385;DHT22;5747;56.748;13.882;2022-08-04T04:33:48;18.00;99.90
11385;DHT22;5747;56.748;13.882;2022-08-04T04:36:37;18.20;99.90
11385;DHT22;5747;56.748;13.882;2022-08-04T04:39:19;18.50;99.90
11385;DHT22;5747;56.748;13.882;2022-08-04T04:42:09;19.10;99.90
11385;DHT22;5747;56.748;13.882;2022-08-04T04:44:55;19.80;99.90
11385;DHT22;5747;56.748;13.882;2022-08-04T04:47:32;20.60;99.90
11385;DHT22;5747;56.748;13.882;2022-08-04T04:50:36;21.70;99.90
11385;DHT22;5747;56.748;13.882;2022-08-04T04:53:15;22.50;99.90
11385;DHT22;5747;56.748;13.882;2022-08-04T04:55:50;22.80;99.90
11385;DHT22;5747;56.748;13.882;2022-08-04T04:58:21;22.40;99.90
11385;DHT22;5747;56.748;13.882;2022-08-04T05:01:21;21.50;99.90
11385;DHT22;5747;56.748;13.882;2022-08-04T05:09:53;21.90;99.90
11385;DHT22;5747;56.748;13.882;2022-08-04T05:12:51;23.00;99.90
11385;DHT22;5747;56.748;13.882;2022-08-04T05:15:50;23.90;99.90
11385;DHT22;5747;56.748;13.882;2022-08-04T05:18:22;24.00;99.90
11385;DHT22;5747;56.748;13.882;2022-08-04T05:20:55;24.20;99.90
11385;DHT22;5747;56.748;13.882;2022-08-04T05:23:27;24.30;99.90
11385;DHT22;5747;56.748;13.882;2022-08-04T05:25:58;24.10;99.90
11385;DHT22;5747;56.748;13.882;2022-08-04T05:28:32;24.60;99.90
11385;DHT22;5747;56.748;13.882;2022-08-04T05:31:10;25.00;99.90
11385;DHT22;5747;56.748;13.882;2022-08-04T05:33:45;25.30;99.90
11385;DHT22;5747;56.748;13.882;2022-08-04T05:36:17;25.20;99.90
11385;DHT22;5747;56.748;13.882;2022-08-04T05:39:10;24.70;99.90
11385;DHT22;5747;56.748;13.882;2022-08-04T05:41:40;25.00;99.90
11385;DHT22;5747;56.748;13.882;2022-08-04T05:44:14;25.60;99.90
11385;DHT22;5747;56.748;13.882;2022-08-04T05:46:47;25.80;99.90
11385;DHT22;5747;56.748;13.882;2022-08-04T05:49:21;26.20;99.90
11385;DHT22;5747;56.748;13.882;2022-08-04T05:51:51;26.90;99.90
11385;DHT22;5747;56.748;13.882;2022-08-04T05:54:21;26.20;99.90
11385;DHT22;5747;56.748;13.882;2022-08-04T05:56:49;25.60;99.90
11385;DHT22;5747;56.748;13.882;2022-08-04T05:59:18;25.10;99.90
11385;DHT22;5747;56.748;13.882;2022-08-04T06:01:49;24.90;99.90
11385;DHT22;5747;56.748;13.882;2022-08-04T06:04:25;25.30;99.90
11385;DHT22;5747;56.748;13.882;2022-08-04T06:06:54;25.10;99.90
11385;DHT22;5747;56.748;13.882;2022-08-04T06:09:22;24.50;99.90
11385;DHT22;5747;56.748;13.882;2022-08-04T06:11:51;23.50;99.90
11385;DHT22;5747;56.748;13.882;2022-08-04T06:14:32;23.10;99.90
11385;DHT22;5747;56.748;13.882;2022-08-04T06:17:06;22.90;99.90
11385;DHT22;5747;56.748;13.882;2022-08-04T06:19:55;23.10;99.90
11385;DHT22;5747;56.748;13.882;2022-08-04T06:22:45;23.50;99.90
11385;DHT22;5747;56.748;13.882;2022-08-04T06:25:16;23.80;99.90
11385;DHT22;5747;56.748;13.882;2022-08-04T06:27:47;24.70;99.90
11385;DHT22;5747;56.748;13.882;2022-08-04T06:30:16;24.90;99.90
11385;DHT22;5747;56.748;13.882;2022-08-04T06:32:48;25.40;99.90
11385;DHT22;5747;56.748;13.882;2022-08-04T06:35:31;25.10;99.90
11385;DHT22;5747;56.748;13.882;2022-08-04T06:38:00;24.60;99.90
11385;DHT22;5747;56.748;13.882;2022-08-04T06:40:30;24.20;99.90
11385;DHT22;5747;56.748;13.882;2022-08-04T06:43:01;24.20;99.90
11385;DHT22;5747;56.748;13.882;2022-08-04T06:45:31;24.40;99.90
11385;DHT22;5747;56.748;13.882;2022-08-04T06:48:03;24.50;99.90
11385;DHT22;5747;56.748;13.882;2022-08-04T06:50:34;24.00;99.90
11385;DHT22;5747;56.748;13.882;2022-08-04T06:53:23;23.80;99.90
11385;DHT22;5747;56.748;13.882;2022-08-04T06:55:53;23.40;99.90
11385;DHT22;5747;56.748;13.882;2022-08-04T06:58:21;23.40;99.90
11385;DHT22;5747;56.748;13.882;2022-08-04T07:00:51;23.40;99.90
11385;DHT22;5747;56.748;13.882;2022-08-04T07:03:21;23.60;99.90
11385;DHT22;5747;56.748;13.882;2022-08-04T07:05:50;24.00;99.90
11385;DHT22;5747;56.748;13.882;2022-08-04T07:08:20;24.20;99.90
11385;DHT22;5747;56.748;13.882;2022-08-04T07:10:49;24.50;99.90
11385;DHT22;5747;56.748;13.882;2022-08-04T07:13:20;24.90;99.90
11385;DHT22;5747;56.748;13.882;2022-08-04T07:15:49;24.80;99.90
11385;DHT22;5747;56.748;13.882;2022-08-04T07:18:17;24.50;99.90
11385;DHT22;5747;56.748;13.882;2022-08-04T07:20:47;24.30;99.90
11385;DHT22;5747;56.748;13.882;2022-08-04T07:23:16;24.50;99.90
11385;DHT22;5747;56.748;13.882;2022-08-04T07:25:50;24.70;99.90
11385;DHT22;5747;56.748;13.882;2022-08-04T07:28:39;24.90;99.90
11385;DHT22;5747;56.748;13.882;2022-08-04T07:31:10;25.10;99.90
11385;DHT22;5747;56.748;13.882;2022-08-04T07:34:01;25.40;99.90
11385;DHT22;5747;56.748;13.882;2022-08-04T07:36:51;25.10;99.90
11385;DHT22;5747;56.748;13.882;2022-08-04T07:39:23;24.90;99.90
11385;DHT22;5747;56.748;13.882;2022-08-04T07:41:55;25.00;99.90
11385;DHT22;5747;56.748;13.882;2022-08-04T07:44:23;25.00;99.90
11385;DHT22;5747;56.748;13.882;2022-08-04T07:46:52;25.40;99.90
11385;DHT22;5747;56.748;13.882;2022-08-04T07:49:21;25.60;99.90
11385;DHT22;5747;56.748;13.882;2022-08-04T07:52:11;25.70;99.90
11385;DHT22;5747;56.748;13.882;2022-08-04T07:54:41;25.40;99.90
11385;DHT22;5747;56.748;13.882;2022-08-04T07:57:09;25.60;99.90
11385;DHT22;5747;56.748;13.882;2022-08-04T07:59:47;25.80;99.90
11385;DHT22;5747;56.748;13.882;2022-08-04T08:02:18;26.10;99.90
11385;DHT22;5747;56.748;13.882;2022-08-04T08:04:47;25.90;99.90
11385;DHT22;5747;56.748;13.882;2022-08-04T08:07:19;25.60;99.90
11385;DHT22;5747;56.748;13.882;2022-08-04T08:09:47;26.00;99.90
11385;DHT22;5747;56.748;13.882;2022-08-04T08:12:16;26.00;99.90
11385;DHT22;5747;56.748;13.882;2022-08-04T08:15:06;25.80;99.90
11385;DHT22;5747;56.748;13.882;2022-08-04T08:17:39;25.80;99.90
11385;DHT22;5747;56.748;13.882;2022-08-04T08:20:27;26.00;99.90
11385;DHT22;5747;56.748;13.882;2022-08-04T08:22:58;26.30;99.90
11385;DHT22;5747;56.748;13.882;2022-08-04T08:25:29;26.80;99.90
11385;DHT22;5747;56.748;13.882;2022-08-04T08:27:57;26.80;99.90
11385;DHT22;5747;56.748;13.882;2022-08-04T08:30:26;27.20;99.90
11385;DHT22;5747;56.748;13.882;2022-08-04T08:33:00;27.70;99.90
11385;DHT22;5747;56.748;13.882;2022-08-04T08:35:41;28.00;99.90
11385;DHT22;5747;56.748;13.882;2022-08-04T08:38:39;27.80;99.90
11385;DHT22;5747;56.748;13.882;2022-08-04T08:44:26;27.50;99.90
11385;DHT22;5747;56.748;13.882;2022-08-04T08:47:15;27.20;99.90
11385;DHT22;5747;56.748;13.882;2022-08-04T08:50:02;27.00;99.90
11385;DHT22;5747;56.748;13.882;2022-08-04T08:55:41;27.10;99.90
11385;DHT22;5747;56.748;13.882;2022-08-04T08:58:31;27.00;99.90
11385;DHT22;5747;56.748;13.882;2022-08-04T09:01:09;27.00;99.90
11385;DHT22;5747;56.748;13.882;2022-08-04T09:04:08;26.90;99.90
11385;DHT22;5747;56.748;13.882;2022-08-04T09:07:01;26.60;99.90
11385;DHT22;5747;56.748;13.882;2022-08-04T09:12:47;26.60;99.90
11385;DHT22;5747;56.748;13.882;2022-08-04T09:15:24;27.00;99.90
11385;DHT22;5747;56.748;13.882;2022-08-04T09:17:58;27.10;99.90
11385;DHT22;5747;56.748;13.882;2022-08-04T09:20:30;27.30;99.90
11385;DHT22;5747;56.748;13.882;2022-08-04T09:23:07;27.40;99.90
11385;DHT22;5747;56.748;13.882;2022-08-04T09:25:39;27.50;99.90
11385;DHT22;5747;56.748;13.882;2022-08-04T09:28:18;27.50;99.90
11385;DHT22;5747;56.748;13.882;2022-08-04T09:31:11;27.40;99.90
11385;DHT22;5747;56.748;13.882;2022-08-04T09:33:47;27.60;99.90
11385;DHT22;5747;56.748;13.882;2022-08-04T09:36:26;27.90;99.90
11385;DHT22;5747;56.748;13.882;2022-08-04T09:39:13;27.80;99.90
11385;DHT22;5747;56.748;13.882;2022-08-04T09:41:49;28.00;99.90
11385;DHT22;5747;56.748;13.882;2022-08-04T09:44:27;28.00;99.90
11385;DHT22;5747;56.748;13.882;2022-08-04T09:47:22;27.90;99.90
11385;DHT22;5747;56.748;13.882;2022-08-04T09:50:29;27.60;99.90
11385;DHT22;5747;56.748;13.882;2022-08-04T09:53:10;27.60;99.90
11385;DHT22;5747;56.748;13.882;2022-08-04T09:55:49;27.70;99.90
11385;DHT22;5747;56.748;13.882;2022-08-04T09:58:32;27.80;99.90
11385;DHT22;5747;56.748;13.882;2022-08-04T10:01:09;28.00;99.90
11385;DHT22;5747;56.748;13.882;2022-08-04T10:03:41;28.10;99.90
11385;DHT22;5747;56.748;13.882;2022-08-04T10:09:13;28.20;99.90
11385;DHT22;5747;56.748;13.882;2022-08-04T10:11:52;28.30;99.90
11385;DHT22;5747;56.748;13.882;2022-08-04T10:14:47;28.40;99.90
11385;DHT22;5747;56.748;13.882;2022-08-04T10:17:37;28.30;99.90
11385;DHT22;5747;56.748;13.882;2022-08-04T10:20:25;28.20;99.90
11385;DHT22;5747;56.748;13.882;2022-08-04T10:23:22;28.40;99.90
11385;DHT22;5747;56.748;13.882;2022-08-04T10:26:04;28.40;99.90
11385;DHT22;5747;56.748;13.882;2022-08-04T10:28:40;28.60;99.90
11385;DHT22;5747;56.748;13.882;2022-08-04T10:31:17;28.80;99.90
11385;DHT22;5747;56.748;13.882;2022-08-04T10:33:53;28.70;99.90
11385;DHT22;5747;56.748;13.882;2022-08-04T10:36:27;28.70;99.90
11385;DHT22;5747;56.748;13.882;2022-08-04T10:39:03;28.50;99.90
11385;DHT22;5747;56.748;13.882;2022-08-04T10:41:46;28.50;99.90
11385;DHT22;5747;56.748;13.882;2022-08-04T10:44:21;28.70;99.90
11385;DHT22;5747;56.748;13.882;2022-08-04T10:47:02;28.70;99.90
11385;DHT22;5747;56.748;13.882;2022-08-04T10:49:36;28.70;99.90
11385;DHT22;5747;56.748;13.882;2022-08-04T10:52:14;28.90;99.90
11385;DHT22;5747;56.748;13.882;2022-08-04T10:54:56;29.20;99.90
11385;DHT22;5747;56.748;13.882;2022-08-04T10:57:32;29.40;99.90
11385;DHT22;5747;56.748;13.882;2022-08-04T11:00:04;29.30;99.90
11385;DHT22;5747;56.748;13.882;2022-08-04T11:02:36;29.00;99.90
11385;DHT22;5747;56.748;13.882;2022-08-04T11:05:16;29.00;99.90
11385;DHT22;5747;56.748;13.882;2022-08-04T11:07:49;29.00;99.90
11385;DHT22;5747;56.748;13.882;2022-08-04T11:10:20;29.00;99.90
11385;DHT22;5747;56.748;13.882;2022-08-04T11:12:55;28.80;99.90
11385;DHT22;5747;56.748;13.882;2022-08-04T11:15:29;28.80;99.90
11385;DHT22;5747;56.748;13.882;2022-08-04T11:18:05;29.00;99.90
11385;DHT22;5747;56.748;13.882;2022-08-04T11:20:52;29.40;99.90
11385;DHT22;5747;56.748;13.882;2022-08-04T11:23:27;29.70;99.90
11385;DHT22;5747;56.748;13.882;2022-08-04T11:25:59;30.20;99.90
11385;DHT22;5747;56.748;13.882;2022-08-04T11:28:38;30.40;99.90
11385;DHT22;5747;56.748;13.882;2022-08-04T11:31:12;30.40;99.90
11385;DHT22;5747;56.748;13.882;2022-08-04T11:33:46;30.40;99.90
11385;DHT22;5747;56.748;13.882;2022-08-04T11:36:28;30.20;99.90
11385;DHT22;5747;56.748;13.882;2022-08-04T11:39:06;30.30;99.90
11385;DHT22;5747;56.748;13.882;2022-08-04T11:41:40;30.50;99.90
11385;DHT22;5747;56.748;13.882;2022-08-04T11:44:15;30.60;99.90
11385;DHT22;5747;56.748;13.882;2022-08-04T11:46:49;30.60;99.90
11385;DHT22;5747;56.748;13.882;2022-08-04T11:49:25;30.60;99.90
11385;DHT22;5747;56.748;13.882;2022-08-04T11:51:59;30.80;99.90
11385;DHT22;5747;56.748;13.882;2022-08-04T11:54:27;30.90;99.90
11385;DHT22;5747;56.748;13.882;2022-08-04T11:56:57;30.80;99.90
11385;DHT22;5747;56.748;13.882;2022-08-04T11:59:27;30.60;99.90
11385;DHT22;5747;56.748;13.882;2022-08-04T12:02:05;30.70;99.90
11385;DHT22;5747;56.748;13.882;2022-08-04T12:04:43;30.80;99.90
11385;DHT22;5747;56.748;13.882;2022-08-04T12:07:20;30.80;99.90
11385;DHT22;5747;56.748;13.882;2022-08-04T12:10:11;30.50;99.90
11385;DHT22;5747;56.748;13.882;2022-08-04T12:12:45;30.30;99.90
11385;DHT22;5747;56.748;13.882;2022-08-04T12:15:19;30.10;99.90
11385;DHT22;5747;56.748;13.882;2022-08-04T12:17:56;30.40;99.90
11385;DHT22;5747;56.748;13.882;2022-08-04T12:20:33;30.50;99.90
11385;DHT22;5747;56.748;13.882;2022-08-04T12:23:15;30.40;99.90
11385;DHT22;5747;56.748;13.882;2022-08-04T12:25:52;30.30;99.90
11385;DHT22;5747;56.748;13.882;2022-08-04T12:28:28;30.00;99.90
11385;DHT22;5747;56.748;13.882;2022-08-04T12:31:20;30.10;99.90
11385;DHT22;5747;56.748;13.882;2022-08-04T12:33:55;30.40;99.90
11385;DHT22;5747;56.748;13.882;2022-08-04T12:36:40;30.60;99.90
11385;DHT22;5747;56.748;13.882;2022-08-04T12:39:15;30.70;99.90
11385;DHT22;5747;56.748;13.882;2022-08-04T12:41:51;30.70;99.90
11385;DHT22;5747;56.748;13.882;2022-08-04T12:44:24;30.50;99.90
11385;DHT22;5747;56.748;13.882;2022-08-04T12:47:06;30.50;99.90
11385;DHT22;5747;56.748;13.882;2022-08-04T12:49:57;30.50;99.90
11385;DHT22;5747;56.748;13.882;2022-08-04T12:52:30;30.80;99.90
11385;DHT22;5747;56.748;13.882;2022-08-04T12:55:23;31.00;99.90
11385;DHT22;5747;56.748;13.882;2022-08-04T12:57:52;30.80;99.90
11385;DHT22;5747;56.748;13.882;2022-08-04T13:00:27;30.30;99.90
11385;DHT22;5747;56.748;13.882;2022-08-04T13:03:04;29.50;99.90
11385;DHT22;5747;56.748;13.882;2022-08-04T13:05:37;29.30;99.90
11385;DHT22;5747;56.748;13.882;2022-08-04T13:08:07;29.40;99.90
11385;DHT22;5747;56.748;13.882;2022-08-04T13:10:39;29.40;99.90
11385;DHT22;5747;56.748;13.882;2022-08-04T13:13:14;29.40;99.90
11385;DHT22;5747;56.748;13.882;2022-08-04T13:15:44;29.70;99.90
11385;DHT22;5747;56.748;13.882;2022-08-04T13:18:23;29.70;99.90
11385;DHT22;5747;56.748;13.882;2022-08-04T13:21:12;29.80;99.90
11385;DHT22;5747;56.748;13.882;2022-08-04T13:23:49;29.60;99.90
11385;DHT22;5747;56.748;13.882;2022-08-04T13:26:49;29.70;99.90
11385;DHT22;5747;56.748;13.882;2022-08-04T13:29:24;29.80;99.90
11385;DHT22;5747;56.748;13.882;2022-08-04T13:32:15;30.20;99.90
11385;DHT22;5747;56.748;13.882;2022-08-04T13:34:45;30.10;99.90
11385;DHT22;5747;56.748;13.882;2022-08-04T13:37:16;30.40;99.90
11385;DHT22;5747;56.748;13.882;2022-08-04T13:39:48;30.50;99.90
11385;DHT22;5747;56.748;13.882;2022-08-04T13:42:24;30.80;99.90
11385;DHT22;5747;56.748;13.882;2022-08-04T13:44:56;31.20;99.90
11385;DHT22;5747;56.748;13.882;2022-08-04T13:47:28;31.10;99.90
11385;DHT22;5747;56.748;13.882;2022-08-04T13:50:15;31.10;99.90
11385;DHT22;5747;56.748;13.882;2022-08-04T13:52:46;31.30;99.90
11385;DHT22;5747;56.748;13.882;2022-08-04T13:55:23;31.20;99.90
11385;DHT22;5747;56.748;13.882;2022-08-04T13:57:59;31.10;99.90
11385;DHT22;5747;56.748;13.882;2022-08-04T14:00:46;30.40;99.90
11385;DHT22;5747;56.748;13.882;2022-08-04T14:03:30;30.10;99.90
11385;DHT22;5747;56.748;13.882;2022-08-04T14:06:08;29.90;99.90
11385;DHT22;5747;56.748;13.882;2022-08-04T14:08:51;30.00;99.90
11385;DHT22;5747;56.748;13.882;2022-08-04T14:11:29;30.40;99.90
11385;DHT22;5747;56.748;13.882;2022-08-04T14:14:22;30.60;99.90
11385;DHT22;5747;56.748;13.882;2022-08-04T14:16:59;30.40;99.90
11385;DHT22;5747;56.748;13.882;2022-08-04T14:19:30;29.90;99.90
11385;DHT22;5747;56.748;13.882;2022-08-04T14:22:27;29.40;99.90
11385;DHT22;5747;56.748;13.882;2022-08-04T14:24:56;29.20;99.90
11385;DHT22;5747;56.748;13.882;2022-08-04T14:27:27;29.20;99.90
11385;DHT22;5747;56.748;13.882;2022-08-04T14:29:56;29.30;99.90
11385;DHT22;5747;56.748;13.882;2022-08-04T14:32:25;29.30;99.90
11385;DHT22;5747;56.748;13.882;2022-08-04T14:34:53;29.20;99.90
11385;DHT22;5747;56.748;13.882;2022-08-04T14:37:22;29.40;99.90
11385;DHT22;5747;56.748;13.882;2022-08-04T14:39:52;29.60;99.90
11385;DHT22;5747;56.748;13.882;2022-08-04T14:42:42;29.60;99.90
11385;DHT22;5747;56.748;13.882;2022-08-04T14:45:31;29.50;99.90
11385;DHT22;5747;56.748;13.882;2022-08-04T14:48:00;29.50;99.90
11385;DHT22;5747;56.748;13.882;2022-08-04T14:50:34;29.50;99.90
11385;DHT22;5747;56.748;13.882;2022-08-04T14:53:07;29.40;99.90
11385;DHT22;5747;56.748;13.882;2022-08-04T14:55:37;29.20;99.90
11385;DHT22;5747;56.748;13.882;2022-08-04T14:58:05;29.00;99.90
11385;DHT22;5747;56.748;13.882;2022-08-04T15:00:57;29.00;99.90
11385;DHT22;5747;56.748;13.882;2022-08-04T15:03:27;29.40;99.90
11385;DHT22;5747;56.748;13.882;2022-08-04T15:05:57;29.80;99.90
11385;DHT22;5747;56.748;13.882;2022-08-04T15:08:33;29.80;99.90
11385;DHT22;5747;56.748;13.882;2022-08-04T15:11:01;29.60;99.90
11385;DHT22;5747;56.748;13.882;2022-08-04T15:13:30;29.50;99.90
11385;DHT22;5747;56.748;13.882;2022-08-04T15:16:00;29.60;99.90
11385;DHT22;5747;56.748;13.882;2022-08-04T15:18:34;29.70;99.90
11385;DHT22;5747;56.748;13.882;2022-08-04T15:21:03;29.70;99.90
11385;DHT22;5747;56.748;13.882;2022-08-04T15:23:33;29.60;99.90
11385;DHT22;5747;56.748;13.882;2022-08-04T15:26:09;29.60;99.90
11385;DHT22;5747;56.748;13.882;2022-08-04T15:28:41;29.70;99.90
11385;DHT22;5747;56.748;13.882;2022-08-04T15:31:13;29.60;99.90
11385;DHT22;5747;56.748;13.882;2022-08-04T15:34:02;29.30;99.90
11385;DHT22;5747;56.748;13.882;2022-08-04T15:36:37;28.60;99.90
11385;DHT22;5747;56.748;13.882;2022-08-04T15:39:19;28.20;99.90
11385;DHT22;5747;56.748;13.882;2022-08-04T15:41:55;28.10;99.90
11385;DHT22;5747;56.748;13.882;2022-08-04T15:44:55;28.00;99.90
11385;DHT22;5747;56.748;13.882;2022-08-04T15:47:27;28.10;99.90
11385;DHT22;5747;56.748;13.882;2022-08-04T15:50:05;28.20;99.90
11385;DHT22;5747;56.748;13.882;2022-08-04T15:53:00;28.30;99.90
11385;DHT22;5747;56.748;13.882;2022-08-04T15:55:40;28.40;99.90
11385;DHT22;5747;56.748;13.882;2022-08-04T15:58:10;28.40;99.90
11385;DHT22;5747;56.748;13.882;2022-08-04T16:01:14;28.40;99.90
11385;DHT22;5747;56.748;13.882;2022-08-04T16:03:48;28.20;99.90
11385;DHT22;5747;56.748;13.882;2022-08-04T16:06:42;28.10;99.90
11385;DHT22;5747;56.748;13.882;2022-08-04T16:09:21;28.10;99.90
11385;DHT22;5747;56.748;13.882;2022-08-04T16:15:37;28.20;99.90
11385;DHT22;5747;56.748;13.882;2022-08-04T16:18:05;28.10;99.90
11385;DHT22;5747;56.748;13.882;2022-08-04T16:20:56;28.10;99.90
11385;DHT22;5747;56.748;13.882;2022-08-04T16:23:46;28.10;99.90
11385;DHT22;5747;56.748;13.882;2022-08-04T16:26:47;28.10;99.90
11385;DHT22;5747;56.748;13.882;2022-08-04T16:29:26;28.10;99.90
11385;DHT22;5747;56.748;13.882;2022-08-04T16:32:15;28.20;99.90
11385;DHT22;5747;56.748;13.882;2022-08-04T16:34:51;28.30;99.90
11385;DHT22;5747;56.748;13.882;2022-08-04T16:37:29;28.30;99.90
11385;DHT22;5747;56.748;13.882;2022-08-04T16:40:27;28.40;99.90
11385;DHT22;5747;56.748;13.882;2022-08-04T16:43:07;28.50;99.90
11385;DHT22;5747;56.748;13.882;2022-08-04T16:45:49;28.40;99.90
11385;DHT22;5747;56.748;13.882;2022-08-04T16:48:19;28.30;99.90
11385;DHT22;5747;56.748;13.882;2022-08-04T16:50:57;28.10;99.90
11385;DHT22;5747;56.748;13.882;2022-08-04T16:53:37;28.10;99.90
11385;DHT22;5747;56.748;13.882;2022-08-04T16:56:31;27.90;99.90
11385;DHT22;5747;56.748;13.882;2022-08-04T16:59:08;27.70;99.90
11385;DHT22;5747;56.748;13.882;2022-08-04T17:01:37;27.70;99.90
11385;DHT22;5747;56.748;13.882;2022-08-04T17:04:05;27.60;99.90
11385;DHT22;5747;56.748;13.882;2022-08-04T17:06:35;27.70;99.90
11385;DHT22;5747;56.748;13.882;2022-08-04T17:09:09;27.50;99.90
11385;DHT22;5747;56.748;13.882;2022-08-04T17:11:37;27.50;99.90
11385;DHT22;5747;56.748;13.882;2022-08-04T17:14:06;27.40;99.90
11385;DHT22;5747;56.748;13.882;2022-08-04T17:16:37;27.40;99.90
11385;DHT22;5747;56.748;13.882;2022-08-04T17:19:07;27.40;99.90
11385;DHT22;5747;56.748;13.882;2022-08-04T17:21:51;27.30;99.90